Leo Leader — 3FQK9 — position and weather

sailwx.info

Track history (hours):
 
Tides and Currents Weather Stations Pressure Air Temp Water Temp Dewpoint Dewpoint Depression Visibility Wind Speed Wind Dir Waves Ship Positions

Leo Leader

Last reported at 2018-Jan-18 06:22 UTC. Time now 2018-Jan-20 21:07 UTC.
Position S 32°59' W 071°51'.

Length 200 m; draft 8.1 m.

Type: Cargo ship. MMSI: 357682000.

Date/timePositionNaut miles runAvg speedWind from/ knotsBaromVisibWave heightAir tempDewpointWater temp
2018-Jan-18 06:22S 32°59' W 071°51'615.7
2018-Jan-18 06:00S 32°53' W 071°51'815.7
2018-Jan-18 05:30S 32°46' W 071°52'  
2018-Jan-08 18:53N 09°11' W 079°52'4 9.9
2018-Jan-08 18:30N 09°13' W 079°55'1 1.5
2018-Jan-08 18:00N 09°13' W 079°56'0 0.1
2018-Jan-08 17:30N 09°13' W 079°56'0 0.0
2018-Jan-08 17:00N 09°13' W 079°56'0 0.0
2018-Jan-08 16:30N 09°13' W 079°56'0 0.1
2018-Jan-08 16:00N 09°13' W 079°56'0 0.0
2018-Jan-08 15:30N 09°13' W 079°56'0 0.1
2018-Jan-08 15:00N 09°13' W 079°56'0 0.0
2018-Jan-08 14:30N 09°13' W 079°56'0 0.0
2018-Jan-08 14:01N 09°13' W 079°56'0 0.0
2018-Jan-08 13:30N 09°13' W 079°56'0 0.0
2018-Jan-08 13:00N 09°13' W 079°56'0 0.0
2018-Jan-08 12:30N 09°13' W 079°56'0 0.1
2018-Jan-08 12:00N 09°13' W 079°56'0 0.0
2018-Jan-08 11:30N 09°13' W 079°56'0 0.0
2018-Jan-08 11:00N 09°13' W 079°56'0 0.1
2018-Jan-08 10:30N 09°14' W 079°56'3 5.1
2018-Jan-08 10:00N 09°16' W 079°55'0 0.7
2018-Jan-08 09:30N 09°16' W 079°55'0 0.4
2018-Jan-08 09:00N 09°17' W 079°55'0 0.8
2018-Jan-08 08:30N 09°17' W 079°55'1 3.0
2018-Jan-08 08:01N 09°18' W 079°55'4 7.2
2018-Jan-08 07:30N 09°22' W 079°55'4 7.2
2018-Jan-08 07:00N 09°26' W 079°55'2 3.4
2018-Jan-08 06:30N 09°27' W 079°54'  
Track history (hours):
 
Tides and Currents Weather Stations Pressure Air Temp Water Temp Dewpoint Dewpoint Depression Visibility Wind Speed Wind Dir Waves Ship Positions

Leo Leader

Last reported at 2018-Jan-18 06:22 UTC. Time now 2018-Jan-20 21:07 UTC.
Position S 32°59' W 071°51'.

Length 200 m; draft 8.1 m.

Type: Cargo ship. MMSI: 357682000.

Date/timePositionNaut miles runAvg speedWind from/ knotsBaromVisibWave heightAir tempDewpointWater temp
2018-Jan-18 06:22S 32°59' W 071°51'615.7
2018-Jan-18 06:00S 32°53' W 071°51'815.7
2018-Jan-18 05:30S 32°46' W 071°52'  
2018-Jan-08 18:53N 09°11' W 079°52'4 9.9
2018-Jan-08 18:30N 09°13' W 079°55'1 1.5
2018-Jan-08 18:00N 09°13' W 079°56'0 0.1
2018-Jan-08 17:30N 09°13' W 079°56'0 0.0
2018-Jan-08 17:00N 09°13' W 079°56'0 0.0
2018-Jan-08 16:30N 09°13' W 079°56'0 0.1
2018-Jan-08 16:00N 09°13' W 079°56'0 0.0
2018-Jan-08 15:30N 09°13' W 079°56'0 0.1
2018-Jan-08 15:00N 09°13' W 079°56'0 0.0
2018-Jan-08 14:30N 09°13' W 079°56'0 0.0
2018-Jan-08 14:01N 09°13' W 079°56'0 0.0
2018-Jan-08 13:30N 09°13' W 079°56'0 0.0
2018-Jan-08 13:00N 09°13' W 079°56'0 0.0
2018-Jan-08 12:30N 09°13' W 079°56'0 0.1
2018-Jan-08 12:00N 09°13' W 079°56'0 0.0
2018-Jan-08 11:30N 09°13' W 079°56'0 0.0
2018-Jan-08 11:00N 09°13' W 079°56'0 0.1
2018-Jan-08 10:30N 09°14' W 079°56'3 5.1
2018-Jan-08 10:00N 09°16' W 079°55'0 0.7
2018-Jan-08 09:30N 09°16' W 079°55'0 0.4
2018-Jan-08 09:00N 09°17' W 079°55'0 0.8
2018-Jan-08 08:30N 09°17' W 079°55'1 3.0
2018-Jan-08 08:01N 09°18' W 079°55'4 7.2
2018-Jan-08 07:30N 09°22' W 079°55'4 7.2
2018-Jan-08 07:00N 09°26' W 079°55'2 3.4
2018-Jan-08 06:30N 09°27' W 079°54'  

Dump ship's entire track history